windsock image

Welcome to Bigfield Strip.

anemometer image
     

 Help for dials.  
 
Local Met:

Wind:   
10 Min average:  
184 ° / 0.0 kts (0.0)
184° / 0.0

Temperature:  
-0.9°C C
Dew Point:  
-2.2°C C
QNH:  
Trend:  
1036.9 mb mb
+0.1mb/hr
BigField Strip. This image updates approximately every minute, it can have a two minute delay.  
 

Humidity:  
91 %
Sunrise:   08:02z
Sunset:   16:26z
Updated:  
  UTC
 
   More met info, trends, radar, history etc. available here   

LUTON Metar   EGGW 172050Z AUTO 15004KT 9000 NCD M00/M02 Q1037
 
  TAF   2017/01/17 20:53 TAF AMD EGGW 172048Z 1720/1818 15004KT 9999 FEW045 BECMG 1720/1722 7000 PROB30 TEMPO 1722/1810 4000 MIFG BR BECMG 1809/1812 9999 PROB40 1812/1818 BKN009
 
BENSON Metar   EGUB 172050Z 15003KT 8000 BR SCT250 M00/M01 Q1037 BLU TEMPO 6000 WHT
 
  TAF   2017/01/17 21:09 TAF TAF EGUB 171942Z 1721/1724 17002KT 9999 FEW022 PROB30 TEMPO 1721/1724 7000 HZ SCT022
 
Big Field view 1 icon   Big Field view 2 icon   Big Field view 3 icon   Chart AL3a in PDF icon   Chart AL3a in Word icon

WARNING:
This information is provided by the Airstrip unofficial weather station, DO NOT depend on the data provided here for any purpose.
This page is updated for latest Metars & TAF's every 5 minutes. Refresh the browser to check for the lastest.
Page designed for a minimum browser size of 1024x768.
© Copyright 2017 BigField Strip. This page auto generated 21:11 UTC - 17/01/2017   Contact Us
Valid HTML 4.01 Transitional     Windows uptime: 0 Days 21 Hours 50 Minutes 50 Seconds    WD started: 23:26 16/01/17    Free memory: 1538MB     Valid CSS!